sensor_id;sensor_type;location;lat;lon;timestamp;temperature;humidity
38488;DHT22;57384;51.986;4.458;2022-10-31T00:01:28;13.30;77.70
38488;DHT22;57384;51.986;4.458;2022-10-31T00:04:13;13.20;77.60
38488;DHT22;57384;51.986;4.458;2022-10-31T00:06:57;13.20;77.60
38488;DHT22;57384;51.986;4.458;2022-10-31T00:09:41;13.20;77.70
38488;DHT22;57384;51.986;4.458;2022-10-31T00:12:26;13.10;77.70
38488;DHT22;57384;51.986;4.458;2022-10-31T00:15:10;13.20;78.00
38488;DHT22;57384;51.986;4.458;2022-10-31T00:17:54;13.20;78.10
38488;DHT22;57384;51.986;4.458;2022-10-31T00:20:46;13.20;78.10
38488;DHT22;57384;51.986;4.458;2022-10-31T00:23:31;13.20;78.20
38488;DHT22;57384;51.986;4.458;2022-10-31T00:26:16;13.10;78.20
38488;DHT22;57384;51.986;4.458;2022-10-31T00:29:00;13.10;78.30
38488;DHT22;57384;51.986;4.458;2022-10-31T00:31:48;13.10;78.30
38488;DHT22;57384;51.986;4.458;2022-10-31T00:34:32;13.10;78.50
38488;DHT22;57384;51.986;4.458;2022-10-31T00:37:16;13.10;78.50
38488;DHT22;57384;51.986;4.458;2022-10-31T00:40:06;13.10;78.60
38488;DHT22;57384;51.986;4.458;2022-10-31T00:42:51;13.10;78.70
38488;DHT22;57384;51.986;4.458;2022-10-31T00:45:38;13.10;78.70
38488;DHT22;57384;51.986;4.458;2022-10-31T00:48:22;13.00;78.70
38488;DHT22;57384;51.986;4.458;2022-10-31T00:51:06;13.00;78.80
38488;DHT22;57384;51.986;4.458;2022-10-31T00:53:53;13.00;78.90
38488;DHT22;57384;51.986;4.458;2022-10-31T00:56:38;13.00;79.10
38488;DHT22;57384;51.986;4.458;2022-10-31T00:59:25;13.00;78.70
38488;DHT22;57384;51.986;4.458;2022-10-31T01:02:09;12.90;78.80
38488;DHT22;57384;51.986;4.458;2022-10-31T01:04:53;12.90;78.60
38488;DHT22;57384;51.986;4.458;2022-10-31T01:07:41;12.90;78.80
38488;DHT22;57384;51.986;4.458;2022-10-31T01:10:26;12.90;79.00
38488;DHT22;57384;51.986;4.458;2022-10-31T01:13:10;12.80;79.00
38488;DHT22;57384;51.986;4.458;2022-10-31T01:15:55;12.90;79.10
38488;DHT22;57384;51.986;4.458;2022-10-31T01:18:42;12.90;79.10
38488;DHT22;57384;51.986;4.458;2022-10-31T01:21:27;12.90;79.10
38488;DHT22;57384;51.986;4.458;2022-10-31T01:24:11;12.90;78.90
38488;DHT22;57384;51.986;4.458;2022-10-31T01:26:55;12.80;78.80
38488;DHT22;57384;51.986;4.458;2022-10-31T01:29:51;12.70;78.80
38488;DHT22;57384;51.986;4.458;2022-10-31T01:32:35;12.80;78.90
38488;DHT22;57384;51.986;4.458;2022-10-31T01:35:22;12.70;78.80
38488;DHT22;57384;51.986;4.458;2022-10-31T01:38:06;12.70;78.70
38488;DHT22;57384;51.986;4.458;2022-10-31T01:40:53;12.70;78.80
38488;DHT22;57384;51.986;4.458;2022-10-31T01:46:46;12.70;78.80
38488;DHT22;57384;51.986;4.458;2022-10-31T01:49:52;12.70;78.90
38488;DHT22;57384;51.986;4.458;2022-10-31T01:52:47;12.70;78.90
38488;DHT22;57384;51.986;4.458;2022-10-31T01:55:41;12.70;78.90
38488;DHT22;57384;51.986;4.458;2022-10-31T01:58:30;12.60;78.80
38488;DHT22;57384;51.986;4.458;2022-10-31T02:01:14;12.60;78.90
38488;DHT22;57384;51.986;4.458;2022-10-31T02:04:00;12.60;78.70
38488;DHT22;57384;51.986;4.458;2022-10-31T02:06:49;12.50;78.70
38488;DHT22;57384;51.986;4.458;2022-10-31T02:09:36;12.50;78.90
38488;DHT22;57384;51.986;4.458;2022-10-31T02:12:24;12.50;78.80
38488;DHT22;57384;51.986;4.458;2022-10-31T02:15:09;12.50;78.80
38488;DHT22;57384;51.986;4.458;2022-10-31T02:18:00;12.40;78.80
38488;DHT22;57384;51.986;4.458;2022-10-31T02:21:02;12.50;78.90
38488;DHT22;57384;51.986;4.458;2022-10-31T02:27:21;12.40;78.90
38488;DHT22;57384;51.986;4.458;2022-10-31T02:30:55;12.40;78.80
38488;DHT22;57384;51.986;4.458;2022-10-31T02:33:53;12.40;78.90
38488;DHT22;57384;51.986;4.458;2022-10-31T02:37:06;12.30;79.00
38488;DHT22;57384;51.986;4.458;2022-10-31T02:40:21;12.30;78.90
38488;DHT22;57384;51.986;4.458;2022-10-31T02:43:17;12.30;78.90
38488;DHT22;57384;51.986;4.458;2022-10-31T02:46:24;12.30;78.90
38488;DHT22;57384;51.986;4.458;2022-10-31T02:49:22;12.20;78.80
38488;DHT22;57384;51.986;4.458;2022-10-31T02:52:19;12.20;78.80
38488;DHT22;57384;51.986;4.458;2022-10-31T02:58:11;12.20;78.80
38488;DHT22;57384;51.986;4.458;2022-10-31T03:01:22;12.10;78.70
38488;DHT22;57384;51.986;4.458;2022-10-31T03:07:37;12.00;78.80
38488;DHT22;57384;51.986;4.458;2022-10-31T03:20:56;12.00;79.70
38488;DHT22;57384;51.986;4.458;2022-10-31T03:23:48;11.90;79.90
38488;DHT22;57384;51.986;4.458;2022-10-31T03:26:42;11.90;79.90
38488;DHT22;57384;51.986;4.458;2022-10-31T03:29:31;12.00;80.30
38488;DHT22;57384;51.986;4.458;2022-10-31T03:32:34;11.90;80.30
38488;DHT22;57384;51.986;4.458;2022-10-31T03:35:22;11.90;80.50
38488;DHT22;57384;51.986;4.458;2022-10-31T03:38:13;11.90;80.60
38488;DHT22;57384;51.986;4.458;2022-10-31T03:41:03;11.90;80.20
38488;DHT22;57384;51.986;4.458;2022-10-31T03:44:02;11.80;80.50
38488;DHT22;57384;51.986;4.458;2022-10-31T03:46:50;11.90;80.90
38488;DHT22;57384;51.986;4.458;2022-10-31T03:49:35;11.90;81.00
38488;DHT22;57384;51.986;4.458;2022-10-31T03:55:28;11.90;81.60
38488;DHT22;57384;51.986;4.458;2022-10-31T03:58:36;11.90;81.50
38488;DHT22;57384;51.986;4.458;2022-10-31T04:01:37;11.90;81.90
38488;DHT22;57384;51.986;4.458;2022-10-31T04:04:24;11.90;81.90
38488;DHT22;57384;51.986;4.458;2022-10-31T04:07:10;11.90;81.80
38488;DHT22;57384;51.986;4.458;2022-10-31T04:09:59;11.90;81.90
38488;DHT22;57384;51.986;4.458;2022-10-31T04:12:57;11.90;82.10
38488;DHT22;57384;51.986;4.458;2022-10-31T04:15:53;11.90;82.10
38488;DHT22;57384;51.986;4.458;2022-10-31T04:18:38;11.90;82.10
38488;DHT22;57384;51.986;4.458;2022-10-31T04:21:35;11.90;81.80
38488;DHT22;57384;51.986;4.458;2022-10-31T04:24:19;11.90;81.90
38488;DHT22;57384;51.986;4.458;2022-10-31T04:27:04;11.90;81.40
38488;DHT22;57384;51.986;4.458;2022-10-31T04:29:49;11.90;81.50
38488;DHT22;57384;51.986;4.458;2022-10-31T04:32:35;11.80;81.60
38488;DHT22;57384;51.986;4.458;2022-10-31T04:35:25;11.80;81.60
38488;DHT22;57384;51.986;4.458;2022-10-31T04:38:09;11.80;81.50
38488;DHT22;57384;51.986;4.458;2022-10-31T04:40:54;11.80;81.40
38488;DHT22;57384;51.986;4.458;2022-10-31T04:43:38;11.80;81.90
38488;DHT22;57384;51.986;4.458;2022-10-31T04:46:22;11.80;81.30
38488;DHT22;57384;51.986;4.458;2022-10-31T04:49:09;11.80;81.30
38488;DHT22;57384;51.986;4.458;2022-10-31T04:51:53;11.80;81.20
38488;DHT22;57384;51.986;4.458;2022-10-31T04:54:37;11.80;81.10
38488;DHT22;57384;51.986;4.458;2022-10-31T04:57:24;11.80;81.10
38488;DHT22;57384;51.986;4.458;2022-10-31T05:00:09;11.80;81.10
38488;DHT22;57384;51.986;4.458;2022-10-31T05:02:56;11.80;81.10
38488;DHT22;57384;51.986;4.458;2022-10-31T05:05:56;11.70;81.00
38488;DHT22;57384;51.986;4.458;2022-10-31T05:08:40;11.70;81.10
38488;DHT22;57384;51.986;4.458;2022-10-31T05:11:27;11.70;81.00
38488;DHT22;57384;51.986;4.458;2022-10-31T05:14:11;11.70;81.20
38488;DHT22;57384;51.986;4.458;2022-10-31T05:16:55;11.70;81.20
38488;DHT22;57384;51.986;4.458;2022-10-31T05:19:40;11.70;81.20
38488;DHT22;57384;51.986;4.458;2022-10-31T05:22:30;11.60;81.10
38488;DHT22;57384;51.986;4.458;2022-10-31T05:25:22;11.60;81.10
38488;DHT22;57384;51.986;4.458;2022-10-31T05:28:09;11.60;81.20
38488;DHT22;57384;51.986;4.458;2022-10-31T05:30:54;11.60;81.10
38488;DHT22;57384;51.986;4.458;2022-10-31T05:33:44;11.60;80.90
38488;DHT22;57384;51.986;4.458;2022-10-31T05:36:28;11.50;80.80
38488;DHT22;57384;51.986;4.458;2022-10-31T05:39:12;11.50;80.80
38488;DHT22;57384;51.986;4.458;2022-10-31T05:41:56;11.50;80.80
38488;DHT22;57384;51.986;4.458;2022-10-31T05:44:40;11.50;80.90
38488;DHT22;57384;51.986;4.458;2022-10-31T05:47:25;11.50;80.80
38488;DHT22;57384;51.986;4.458;2022-10-31T05:50:09;11.50;80.90
38488;DHT22;57384;51.986;4.458;2022-10-31T05:53:02;11.50;81.00
38488;DHT22;57384;51.986;4.458;2022-10-31T05:55:47;11.50;81.20
38488;DHT22;57384;51.986;4.458;2022-10-31T05:58:31;11.40;81.20
38488;DHT22;57384;51.986;4.458;2022-10-31T06:01:15;11.40;81.40
38488;DHT22;57384;51.986;4.458;2022-10-31T06:03:59;11.40;81.60
38488;DHT22;57384;51.986;4.458;2022-10-31T06:06:43;11.40;81.80
38488;DHT22;57384;51.986;4.458;2022-10-31T06:09:28;11.40;81.90
38488;DHT22;57384;51.986;4.458;2022-10-31T06:12:12;11.40;82.10
38488;DHT22;57384;51.986;4.458;2022-10-31T06:14:56;11.40;82.20
38488;DHT22;57384;51.986;4.458;2022-10-31T06:17:40;11.40;82.30
38488;DHT22;57384;51.986;4.458;2022-10-31T06:20:24;11.40;82.40
38488;DHT22;57384;51.986;4.458;2022-10-31T06:23:08;11.40;82.50
38488;DHT22;57384;51.986;4.458;2022-10-31T06:25:52;11.40;82.60
38488;DHT22;57384;51.986;4.458;2022-10-31T06:28:37;11.40;82.80
38488;DHT22;57384;51.986;4.458;2022-10-31T06:31:24;11.40;82.90
38488;DHT22;57384;51.986;4.458;2022-10-31T06:34:08;11.40;83.10
38488;DHT22;57384;51.986;4.458;2022-10-31T06:36:52;11.40;82.60
38488;DHT22;57384;51.986;4.458;2022-10-31T06:39:39;11.30;82.80
38488;DHT22;57384;51.986;4.458;2022-10-31T06:42:23;11.30;83.20
38488;DHT22;57384;51.986;4.458;2022-10-31T06:45:11;11.30;83.20
38488;DHT22;57384;51.986;4.458;2022-10-31T06:47:55;11.30;83.40
38488;DHT22;57384;51.986;4.458;2022-10-31T06:50:39;11.30;82.90
38488;DHT22;57384;51.986;4.458;2022-10-31T06:53:24;11.30;83.10
38488;DHT22;57384;51.986;4.458;2022-10-31T06:56:08;11.30;83.30
38488;DHT22;57384;51.986;4.458;2022-10-31T06:58:54;11.30;83.60
38488;DHT22;57384;51.986;4.458;2022-10-31T07:01:39;11.40;84.40
38488;DHT22;57384;51.986;4.458;2022-10-31T07:04:23;11.30;83.80
38488;DHT22;57384;51.986;4.458;2022-10-31T07:07:07;11.40;84.60
38488;DHT22;57384;51.986;4.458;2022-10-31T07:09:57;11.40;84.20
38488;DHT22;57384;51.986;4.458;2022-10-31T07:12:41;11.40;84.30
38488;DHT22;57384;51.986;4.458;2022-10-31T07:15:27;11.40;84.30
38488;DHT22;57384;51.986;4.458;2022-10-31T07:18:12;11.40;84.50
38488;DHT22;57384;51.986;4.458;2022-10-31T07:20:56;11.40;84.60
38488;DHT22;57384;51.986;4.458;2022-10-31T07:23:40;11.50;84.80
38488;DHT22;57384;51.986;4.458;2022-10-31T07:26:30;11.50;84.90
38488;DHT22;57384;51.986;4.458;2022-10-31T07:29:14;11.50;85.20
38488;DHT22;57384;51.986;4.458;2022-10-31T07:31:58;11.50;85.10
38488;DHT22;57384;51.986;4.458;2022-10-31T07:34:42;11.60;85.30
38488;DHT22;57384;51.986;4.458;2022-10-31T07:37:27;11.60;85.40
38488;DHT22;57384;51.986;4.458;2022-10-31T07:40:12;11.60;85.50
38488;DHT22;57384;51.986;4.458;2022-10-31T07:42:57;11.60;85.60
38488;DHT22;57384;51.986;4.458;2022-10-31T07:45:52;11.60;85.70
38488;DHT22;57384;51.986;4.458;2022-10-31T07:48:37;11.70;86.10
38488;DHT22;57384;51.986;4.458;2022-10-31T07:51:21;11.70;85.90
38488;DHT22;57384;51.986;4.458;2022-10-31T07:54:05;11.80;86.10
38488;DHT22;57384;51.986;4.458;2022-10-31T07:56:50;11.80;86.20
38488;DHT22;57384;51.986;4.458;2022-10-31T07:59:34;11.80;86.30
38488;DHT22;57384;51.986;4.458;2022-10-31T08:02:18;11.80;86.30
38488;DHT22;57384;51.986;4.458;2022-10-31T08:05:02;11.90;86.50
38488;DHT22;57384;51.986;4.458;2022-10-31T08:07:46;11.90;86.60
38488;DHT22;57384;51.986;4.458;2022-10-31T08:10:30;11.90;86.70
38488;DHT22;57384;51.986;4.458;2022-10-31T08:13:15;12.00;86.90
38488;DHT22;57384;51.986;4.458;2022-10-31T08:15:59;12.00;86.80
38488;DHT22;57384;51.986;4.458;2022-10-31T08:18:53;12.10;87.00
38488;DHT22;57384;51.986;4.458;2022-10-31T08:21:50;12.00;87.20
38488;DHT22;57384;51.986;4.458;2022-10-31T08:24:40;12.10;87.40
38488;DHT22;57384;51.986;4.458;2022-10-31T08:27:24;12.20;87.20
38488;DHT22;57384;51.986;4.458;2022-10-31T08:30:11;12.20;87.20
38488;DHT22;57384;51.986;4.458;2022-10-31T08:33:03;12.20;87.50
38488;DHT22;57384;51.986;4.458;2022-10-31T08:35:57;12.30;86.80
38488;DHT22;57384;51.986;4.458;2022-10-31T08:38:41;12.30;87.20
38488;DHT22;57384;51.986;4.458;2022-10-31T08:41:26;12.40;87.30
38488;DHT22;57384;51.986;4.458;2022-10-31T08:44:12;12.40;87.50
38488;DHT22;57384;51.986;4.458;2022-10-31T08:47:06;12.50;87.60
38488;DHT22;57384;51.986;4.458;2022-10-31T08:49:53;12.60;88.00
38488;DHT22;57384;51.986;4.458;2022-10-31T08:52:49;12.60;87.90
38488;DHT22;57384;51.986;4.458;2022-10-31T08:55:36;12.70;88.00
38488;DHT22;57384;51.986;4.458;2022-10-31T08:58:27;12.80;88.20
38488;DHT22;57384;51.986;4.458;2022-10-31T09:01:11;12.90;88.40
38488;DHT22;57384;51.986;4.458;2022-10-31T09:04:02;13.10;88.50
38488;DHT22;57384;51.986;4.458;2022-10-31T09:06:46;13.10;88.70
38488;DHT22;57384;51.986;4.458;2022-10-31T09:09:30;13.30;88.70
38488;DHT22;57384;51.986;4.458;2022-10-31T09:12:17;13.40;88.90
38488;DHT22;57384;51.986;4.458;2022-10-31T09:15:01;13.50;88.90
38488;DHT22;57384;51.986;4.458;2022-10-31T09:17:47;13.60;88.80
38488;DHT22;57384;51.986;4.458;2022-10-31T09:20:33;13.80;88.80
38488;DHT22;57384;51.986;4.458;2022-10-31T09:23:21;13.90;89.20
38488;DHT22;57384;51.986;4.458;2022-10-31T09:26:09;13.90;88.50
38488;DHT22;57384;51.986;4.458;2022-10-31T09:28:56;14.10;88.40
38488;DHT22;57384;51.986;4.458;2022-10-31T09:31:40;14.20;88.10
38488;DHT22;57384;51.986;4.458;2022-10-31T09:34:31;14.20;87.90
38488;DHT22;57384;51.986;4.458;2022-10-31T09:37:15;14.30;88.00
38488;DHT22;57384;51.986;4.458;2022-10-31T09:39:59;14.40;87.80
38488;DHT22;57384;51.986;4.458;2022-10-31T09:45:56;14.50;87.80
38488;DHT22;57384;51.986;4.458;2022-10-31T09:51:56;14.60;87.40
38488;DHT22;57384;51.986;4.458;2022-10-31T09:54:57;14.70;87.30
38488;DHT22;57384;51.986;4.458;2022-10-31T09:57:43;14.80;87.90
38488;DHT22;57384;51.986;4.458;2022-10-31T10:00:31;14.90;87.20
38488;DHT22;57384;51.986;4.458;2022-10-31T10:06:14;15.00;86.90
38488;DHT22;57384;51.986;4.458;2022-10-31T10:09:01;15.10;86.50
38488;DHT22;57384;51.986;4.458;2022-10-31T10:11:53;15.10;86.30
38488;DHT22;57384;51.986;4.458;2022-10-31T10:17:40;15.30;86.30
38488;DHT22;57384;51.986;4.458;2022-10-31T10:20:58;15.30;86.20
38488;DHT22;57384;51.986;4.458;2022-10-31T10:26:46;15.40;86.10
38488;DHT22;57384;51.986;4.458;2022-10-31T10:29:57;15.50;85.90
38488;DHT22;57384;51.986;4.458;2022-10-31T10:33:11;15.70;85.90
38488;DHT22;57384;51.986;4.458;2022-10-31T10:36:17;15.90;85.40
38488;DHT22;57384;51.986;4.458;2022-10-31T10:39:27;16.00;84.90
38488;DHT22;57384;51.986;4.458;2022-10-31T10:42:15;16.30;84.60
38488;DHT22;57384;51.986;4.458;2022-10-31T10:45:17;16.50;83.80
38488;DHT22;57384;51.986;4.458;2022-10-31T10:54:39;17.00;82.30
38488;DHT22;57384;51.986;4.458;2022-10-31T10:58:03;17.10;81.90
38488;DHT22;57384;51.986;4.458;2022-10-31T11:00:47;17.20;81.70
38488;DHT22;57384;51.986;4.458;2022-10-31T11:03:38;17.30;81.50
38488;DHT22;57384;51.986;4.458;2022-10-31T11:06:29;17.40;81.50
38488;DHT22;57384;51.986;4.458;2022-10-31T11:09:16;17.40;81.40
38488;DHT22;57384;51.986;4.458;2022-10-31T11:12:22;17.50;81.40
38488;DHT22;57384;51.986;4.458;2022-10-31T11:15:20;17.60;81.30
38488;DHT22;57384;51.986;4.458;2022-10-31T11:18:21;17.70;81.00
38488;DHT22;57384;51.986;4.458;2022-10-31T11:21:28;17.70;81.00
38488;DHT22;57384;51.986;4.458;2022-10-31T11:24:18;17.80;80.90
38488;DHT22;57384;51.986;4.458;2022-10-31T11:27:15;17.80;80.70
38488;DHT22;57384;51.986;4.458;2022-10-31T11:30:11;17.90;80.20
38488;DHT22;57384;51.986;4.458;2022-10-31T11:32:56;18.00;80.10
38488;DHT22;57384;51.986;4.458;2022-10-31T11:35:43;18.00;79.90
38488;DHT22;57384;51.986;4.458;2022-10-31T11:38:35;18.10;79.70
38488;DHT22;57384;51.986;4.458;2022-10-31T11:44:18;18.20;79.50
38488;DHT22;57384;51.986;4.458;2022-10-31T11:47:15;18.20;79.30
38488;DHT22;57384;51.986;4.458;2022-10-31T11:50:08;18.20;79.20
38488;DHT22;57384;51.986;4.458;2022-10-31T11:52:56;18.30;79.50
38488;DHT22;57384;51.986;4.458;2022-10-31T11:55:43;18.30;79.80
38488;DHT22;57384;51.986;4.458;2022-10-31T11:58:28;18.30;79.00
38488;DHT22;57384;51.986;4.458;2022-10-31T12:01:39;18.30;78.90
38488;DHT22;57384;51.986;4.458;2022-10-31T12:04:44;18.40;78.80
38488;DHT22;57384;51.986;4.458;2022-10-31T12:07:40;18.50;78.70
38488;DHT22;57384;51.986;4.458;2022-10-31T12:10:40;18.50;78.50
38488;DHT22;57384;51.986;4.458;2022-10-31T12:13:53;18.50;78.90
38488;DHT22;57384;51.986;4.458;2022-10-31T12:42:12;19.10;77.10
38488;DHT22;57384;51.986;4.458;2022-10-31T12:45:29;19.20;77.00
38488;DHT22;57384;51.986;4.458;2022-10-31T12:55:18;19.30;76.80
38488;DHT22;57384;51.986;4.458;2022-10-31T12:58:26;19.30;76.70
38488;DHT22;57384;51.986;4.458;2022-10-31T13:01:32;19.30;76.60
38488;DHT22;57384;51.986;4.458;2022-10-31T13:04:45;19.30;76.90
38488;DHT22;57384;51.986;4.458;2022-10-31T13:07:38;19.40;76.60
38488;DHT22;57384;51.986;4.458;2022-10-31T13:10:39;19.30;76.40
38488;DHT22;57384;51.986;4.458;2022-10-31T13:13:41;19.40;76.30
38488;DHT22;57384;51.986;4.458;2022-10-31T13:32:05;19.30;76.40
38488;DHT22;57384;51.986;4.458;2022-10-31T13:34:53;19.20;76.30
38488;DHT22;57384;51.986;4.458;2022-10-31T13:37:51;19.30;76.30
38488;DHT22;57384;51.986;4.458;2022-10-31T13:40:50;19.30;76.40
38488;DHT22;57384;51.986;4.458;2022-10-31T13:43:59;19.20;76.20
38488;DHT22;57384;51.986;4.458;2022-10-31T13:46:45;19.20;76.30
38488;DHT22;57384;51.986;4.458;2022-10-31T13:52:23;19.20;76.40
38488;DHT22;57384;51.986;4.458;2022-10-31T13:55:34;19.20;76.20
38488;DHT22;57384;51.986;4.458;2022-10-31T13:58:30;19.10;76.40
38488;DHT22;57384;51.986;4.458;2022-10-31T14:01:21;19.10;76.40
38488;DHT22;57384;51.986;4.458;2022-10-31T14:04:21;19.10;76.40
38488;DHT22;57384;51.986;4.458;2022-10-31T14:07:11;19.10;76.30
38488;DHT22;57384;51.986;4.458;2022-10-31T14:10:06;19.00;76.30
38488;DHT22;57384;51.986;4.458;2022-10-31T14:13:20;19.00;76.40
38488;DHT22;57384;51.986;4.458;2022-10-31T14:16:26;19.00;76.40
38488;DHT22;57384;51.986;4.458;2022-10-31T14:19:20;19.00;76.70
38488;DHT22;57384;51.986;4.458;2022-10-31T14:22:20;18.90;76.60
38488;DHT22;57384;51.986;4.458;2022-10-31T14:25:33;18.90;76.70
38488;DHT22;57384;51.986;4.458;2022-10-31T14:28:35;18.90;76.80
38488;DHT22;57384;51.986;4.458;2022-10-31T14:31:51;18.80;76.80
38488;DHT22;57384;51.986;4.458;2022-10-31T14:34:51;18.80;76.90
38488;DHT22;57384;51.986;4.458;2022-10-31T14:37:43;18.80;77.00
38488;DHT22;57384;51.986;4.458;2022-10-31T14:46:55;18.70;77.00
38488;DHT22;57384;51.986;4.458;2022-10-31T14:52:56;18.70;77.10
38488;DHT22;57384;51.986;4.458;2022-10-31T14:55:44;18.70;77.20
38488;DHT22;57384;51.986;4.458;2022-10-31T14:58:57;18.70;77.40
38488;DHT22;57384;51.986;4.458;2022-10-31T15:01:52;18.70;77.40
38488;DHT22;57384;51.986;4.458;2022-10-31T15:04:38;18.70;77.40
38488;DHT22;57384;51.986;4.458;2022-10-31T15:07:26;18.60;77.30
38488;DHT22;57384;51.986;4.458;2022-10-31T15:10:28;18.60;77.40
38488;DHT22;57384;51.986;4.458;2022-10-31T15:13:18;18.60;77.50
38488;DHT22;57384;51.986;4.458;2022-10-31T15:16:08;18.60;77.50
38488;DHT22;57384;51.986;4.458;2022-10-31T15:19:07;18.50;77.50
38488;DHT22;57384;51.986;4.458;2022-10-31T15:21:56;18.50;77.60
38488;DHT22;57384;51.986;4.458;2022-10-31T15:24:41;18.50;77.70
38488;DHT22;57384;51.986;4.458;2022-10-31T15:27:26;18.50;77.70
38488;DHT22;57384;51.986;4.458;2022-10-31T15:30:22;18.40;77.80
38488;DHT22;57384;51.986;4.458;2022-10-31T15:33:26;18.40;78.40
38488;DHT22;57384;51.986;4.458;2022-10-31T15:36:22;18.40;77.90
38488;DHT22;57384;51.986;4.458;2022-10-31T15:39:11;18.30;78.00
38488;DHT22;57384;51.986;4.458;2022-10-31T15:41:59;18.30;78.10
38488;DHT22;57384;51.986;4.458;2022-10-31T15:44:44;18.30;78.20
38488;DHT22;57384;51.986;4.458;2022-10-31T15:47:31;18.20;78.20
38488;DHT22;57384;51.986;4.458;2022-10-31T15:50:32;18.20;78.30
38488;DHT22;57384;51.986;4.458;2022-10-31T15:53:27;18.20;78.30
38488;DHT22;57384;51.986;4.458;2022-10-31T15:56:25;18.10;78.40
38488;DHT22;57384;51.986;4.458;2022-10-31T15:59:21;18.20;78.30
38488;DHT22;57384;51.986;4.458;2022-10-31T16:02:10;18.10;78.40
38488;DHT22;57384;51.986;4.458;2022-10-31T16:05:01;18.00;78.50
38488;DHT22;57384;51.986;4.458;2022-10-31T16:07:50;18.00;78.60
38488;DHT22;57384;51.986;4.458;2022-10-31T16:10:35;18.00;78.70
38488;DHT22;57384;51.986;4.458;2022-10-31T16:13:25;18.00;78.70
38488;DHT22;57384;51.986;4.458;2022-10-31T16:16:15;18.00;78.80
38488;DHT22;57384;51.986;4.458;2022-10-31T16:19:01;17.90;78.70
38488;DHT22;57384;51.986;4.458;2022-10-31T16:21:48;17.90;78.80
38488;DHT22;57384;51.986;4.458;2022-10-31T16:24:48;17.80;78.80
38488;DHT22;57384;51.986;4.458;2022-10-31T16:27:35;17.80;78.90
38488;DHT22;57384;51.986;4.458;2022-10-31T16:30:42;17.80;79.00
38488;DHT22;57384;51.986;4.458;2022-10-31T16:33:31;17.80;79.10
38488;DHT22;57384;51.986;4.458;2022-10-31T16:36:32;17.70;79.20
38488;DHT22;57384;51.986;4.458;2022-10-31T16:39:20;17.70;79.30
38488;DHT22;57384;51.986;4.458;2022-10-31T16:42:04;17.70;79.30
38488;DHT22;57384;51.986;4.458;2022-10-31T16:44:48;17.60;79.20
38488;DHT22;57384;51.986;4.458;2022-10-31T16:47:39;17.60;79.30
38488;DHT22;57384;51.986;4.458;2022-10-31T16:50:27;17.60;79.50
38488;DHT22;57384;51.986;4.458;2022-10-31T16:53:11;17.50;79.60
38488;DHT22;57384;51.986;4.458;2022-10-31T16:56:01;17.50;79.60
38488;DHT22;57384;51.986;4.458;2022-10-31T16:58:46;17.50;79.60
38488;DHT22;57384;51.986;4.458;2022-10-31T17:01:30;17.50;79.70
38488;DHT22;57384;51.986;4.458;2022-10-31T17:04:18;17.40;79.70
38488;DHT22;57384;51.986;4.458;2022-10-31T17:07:03;17.40;79.70
38488;DHT22;57384;51.986;4.458;2022-10-31T17:09:51;17.40;79.70
38488;DHT22;57384;51.986;4.458;2022-10-31T17:12:36;17.40;79.70
38488;DHT22;57384;51.986;4.458;2022-10-31T17:15:27;17.40;79.70
38488;DHT22;57384;51.986;4.458;2022-10-31T17:18:13;17.30;79.70
38488;DHT22;57384;51.986;4.458;2022-10-31T17:20:59;17.30;79.70
38488;DHT22;57384;51.986;4.458;2022-10-31T17:23:51;17.30;79.80
38488;DHT22;57384;51.986;4.458;2022-10-31T17:26:35;17.20;79.70
38488;DHT22;57384;51.986;4.458;2022-10-31T17:29:26;17.10;79.70
38488;DHT22;57384;51.986;4.458;2022-10-31T17:32:10;17.20;79.80
38488;DHT22;57384;51.986;4.458;2022-10-31T17:34:55;17.10;79.80
38488;DHT22;57384;51.986;4.458;2022-10-31T17:37:41;17.10;80.40
38488;DHT22;57384;51.986;4.458;2022-10-31T17:40:25;17.00;79.70
38488;DHT22;57384;51.986;4.458;2022-10-31T17:43:10;17.00;79.70
38488;DHT22;57384;51.986;4.458;2022-10-31T17:45:58;17.00;79.80
38488;DHT22;57384;51.986;4.458;2022-10-31T17:48:42;16.90;79.80
38488;DHT22;57384;51.986;4.458;2022-10-31T17:51:26;16.90;79.70
38488;DHT22;57384;51.986;4.458;2022-10-31T17:54:10;16.90;79.80
38488;DHT22;57384;51.986;4.458;2022-10-31T17:56:54;16.80;79.70
38488;DHT22;57384;51.986;4.458;2022-10-31T17:59:38;16.80;79.80
38488;DHT22;57384;51.986;4.458;2022-10-31T18:02:22;16.80;79.80
38488;DHT22;57384;51.986;4.458;2022-10-31T18:05:11;16.70;79.80
38488;DHT22;57384;51.986;4.458;2022-10-31T18:07:55;16.70;79.90
38488;DHT22;57384;51.986;4.458;2022-10-31T18:10:39;16.70;79.90
38488;DHT22;57384;51.986;4.458;2022-10-31T18:13:23;16.60;79.90
38488;DHT22;57384;51.986;4.458;2022-10-31T18:16:13;16.60;80.00
38488;DHT22;57384;51.986;4.458;2022-10-31T18:18:58;16.50;80.00
38488;DHT22;57384;51.986;4.458;2022-10-31T18:21:44;16.50;80.10
38488;DHT22;57384;51.986;4.458;2022-10-31T18:24:31;16.50;80.20
38488;DHT22;57384;51.986;4.458;2022-10-31T18:27:15;16.50;80.20
38488;DHT22;57384;51.986;4.458;2022-10-31T18:29:59;16.40;80.20
38488;DHT22;57384;51.986;4.458;2022-10-31T18:32:43;16.40;80.20
38488;DHT22;57384;51.986;4.458;2022-10-31T18:35:27;16.30;80.30
38488;DHT22;57384;51.986;4.458;2022-10-31T18:38:11;16.30;80.40
38488;DHT22;57384;51.986;4.458;2022-10-31T18:40:56;16.30;80.50
38488;DHT22;57384;51.986;4.458;2022-10-31T18:43:40;16.20;80.50
38488;DHT22;57384;51.986;4.458;2022-10-31T18:46:25;16.30;80.60
38488;DHT22;57384;51.986;4.458;2022-10-31T18:49:10;16.20;80.50
38488;DHT22;57384;51.986;4.458;2022-10-31T18:51:54;16.20;80.50
38488;DHT22;57384;51.986;4.458;2022-10-31T18:54:48;16.20;80.60
38488;DHT22;57384;51.986;4.458;2022-10-31T18:57:35;16.20;80.70
38488;DHT22;57384;51.986;4.458;2022-10-31T19:00:25;16.10;80.60
38488;DHT22;57384;51.986;4.458;2022-10-31T19:03:09;16.10;80.70
38488;DHT22;57384;51.986;4.458;2022-10-31T19:05:56;16.10;80.60
38488;DHT22;57384;51.986;4.458;2022-10-31T19:08:47;16.10;80.70
38488;DHT22;57384;51.986;4.458;2022-10-31T19:11:33;16.10;80.70
38488;DHT22;57384;51.986;4.458;2022-10-31T19:20:54;16.00;80.80
38488;DHT22;57384;51.986;4.458;2022-10-31T19:23:39;16.00;80.80
38488;DHT22;57384;51.986;4.458;2022-10-31T19:26:36;15.90;80.80
38488;DHT22;57384;51.986;4.458;2022-10-31T19:29:23;15.90;80.90
38488;DHT22;57384;51.986;4.458;2022-10-31T19:32:11;15.90;80.90
38488;DHT22;57384;51.986;4.458;2022-10-31T19:34:56;15.90;80.90
38488;DHT22;57384;51.986;4.458;2022-10-31T19:37:40;15.90;81.00
38488;DHT22;57384;51.986;4.458;2022-10-31T19:40:30;15.90;81.00
38488;DHT22;57384;51.986;4.458;2022-10-31T19:43:19;15.90;81.10
38488;DHT22;57384;51.986;4.458;2022-10-31T19:46:04;15.80;81.00
38488;DHT22;57384;51.986;4.458;2022-10-31T19:49:01;15.80;81.00
38488;DHT22;57384;51.986;4.458;2022-10-31T19:51:58;15.80;81.10